LFMN/NCE METAR and TAF weather

Enter ICAO airport designator
Station Type Date Time Source
LFMN METAR 2024/04/15 08:30 UTC NOAA

LFMN 150830Z 19005KT 7000 FEW003 OVC260 17/15 Q1017 NOSIG


Station Type Date Time Source
LFMN Decoded METAR 2024/04/15 08:30 UTC NOAA

Nice, France (LFMN) 43-39N 007-12E 10M
Apr 15, 2024 - 04:30 AM EDT / 2024.04.15 0830 UTC
Wind: from the S (190 degrees) at 6 MPH (5 KT):0
Visibility: 4 mile(s):0
Sky conditions: overcast
Temperature: 62 F (17 C)
Dew Point: 59 F (15 C)
Relative Humidity: 88%
Pressure (altimeter): 30.03 in. Hg (1017 hPa)
ob: LFMN 150830Z 19005KT 7000 FEW003 OVC260 17/15 Q1017 NOSIG
cycle: 8

Station Type Date Time Source
LFMN TAF 2024/04/15 09:24 UTC NOAA